sensor_id;sensor_type;location;lat;lon;timestamp;pressure;altitude;pressure_sealevel;temperature;humidity
83095;BME280;72967;43.674;6.976;2023-11-21T00:01:25;95916.19;;;13.30;76.93
83095;BME280;72967;43.674;6.976;2023-11-21T00:03:51;95904.19;;;13.08;78.08
83095;BME280;72967;43.674;6.976;2023-11-21T00:06:19;95895.09;;;13.04;78.08
83095;BME280;72967;43.674;6.976;2023-11-21T00:08:45;95907.03;;;13.19;77.34
83095;BME280;72967;43.674;6.976;2023-11-21T00:11:11;95894.69;;;13.06;76.81
83095;BME280;72967;43.674;6.976;2023-11-21T00:13:36;95909.78;;;13.15;76.46
83095;BME280;72967;43.674;6.976;2023-11-21T00:16:03;95904.59;;;13.10;76.38
83095;BME280;72967;43.674;6.976;2023-11-21T00:18:29;95900.31;;;13.16;76.15
83095;BME280;72967;43.674;6.976;2023-11-21T00:20:55;95913.00;;;13.25;75.68
83095;BME280;72967;43.674;6.976;2023-11-21T00:23:20;95897.19;;;13.22;75.71
83095;BME280;72967;43.674;6.976;2023-11-21T00:25:45;95895.22;;;13.18;75.95
83095;BME280;72967;43.674;6.976;2023-11-21T00:28:11;95906.25;;;13.18;76.00
83095;BME280;72967;43.674;6.976;2023-11-21T00:30:36;95905.09;;;13.19;76.22
83095;BME280;72967;43.674;6.976;2023-11-21T00:33:02;95907.91;;;13.30;75.89
83095;BME280;72967;43.674;6.976;2023-11-21T00:35:27;95906.34;;;13.33;75.84
83095;BME280;72967;43.674;6.976;2023-11-21T00:37:52;95900.72;;;13.18;75.72
83095;BME280;72967;43.674;6.976;2023-11-21T00:40:18;95894.84;;;13.27;75.46
83095;BME280;72967;43.674;6.976;2023-11-21T00:42:46;95899.50;;;13.12;76.78
83095;BME280;72967;43.674;6.976;2023-11-21T00:45:12;95885.72;;;13.16;76.17
83095;BME280;72967;43.674;6.976;2023-11-21T00:47:37;95882.63;;;13.21;75.70
83095;BME280;72967;43.674;6.976;2023-11-21T00:50:04;95844.19;;;12.98;75.48
83095;BME280;72967;43.674;6.976;2023-11-21T00:52:31;95891.41;;;13.41;75.43
83095;BME280;72967;43.674;6.976;2023-11-21T00:54:56;95881.53;;;13.40;75.51
83095;BME280;72967;43.674;6.976;2023-11-21T00:57:24;95882.72;;;13.42;75.83
83095;BME280;72967;43.674;6.976;2023-11-21T00:59:50;95875.22;;;13.39;76.11
83095;BME280;72967;43.674;6.976;2023-11-21T01:02:15;95871.66;;;13.35;77.35
83095;BME280;72967;43.674;6.976;2023-11-21T01:04:40;95868.91;;;13.35;77.41
83095;BME280;72967;43.674;6.976;2023-11-21T01:07:06;95876.38;;;13.35;77.57
83095;BME280;72967;43.674;6.976;2023-11-21T01:09:31;95876.75;;;13.26;78.35
83095;BME280;72967;43.674;6.976;2023-11-21T01:11:57;95871.63;;;13.32;78.00
83095;BME280;72967;43.674;6.976;2023-11-21T01:14:22;95862.16;;;13.29;77.62
83095;BME280;72967;43.674;6.976;2023-11-21T01:16:47;95863.75;;;13.34;77.25
83095;BME280;72967;43.674;6.976;2023-11-21T01:19:14;95859.78;;;13.28;77.26
83095;BME280;72967;43.674;6.976;2023-11-21T01:21:39;95855.47;;;13.30;77.32
83095;BME280;72967;43.674;6.976;2023-11-21T01:24:05;95859.44;;;13.36;77.51
83095;BME280;72967;43.674;6.976;2023-11-21T01:26:33;95857.00;;;13.24;78.14
83095;BME280;72967;43.674;6.976;2023-11-21T01:28:58;95865.66;;;13.19;78.67
83095;BME280;72967;43.674;6.976;2023-11-21T01:31:24;95859.81;;;13.31;78.42
83095;BME280;72967;43.674;6.976;2023-11-21T01:33:52;95861.28;;;13.14;79.58
83095;BME280;72967;43.674;6.976;2023-11-21T01:36:18;95868.47;;;13.30;78.76
83095;BME280;72967;43.674;6.976;2023-11-21T01:38:43;95874.34;;;13.25;78.82
83095;BME280;72967;43.674;6.976;2023-11-21T01:41:08;95858.44;;;13.07;79.47
83095;BME280;72967;43.674;6.976;2023-11-21T01:43:36;95846.34;;;13.23;78.79
83095;BME280;72967;43.674;6.976;2023-11-21T01:46:02;95838.44;;;13.17;78.57
83095;BME280;72967;43.674;6.976;2023-11-21T01:48:29;95842.34;;;13.16;79.11
83095;BME280;72967;43.674;6.976;2023-11-21T01:50:55;95849.72;;;13.02;79.38
83095;BME280;72967;43.674;6.976;2023-11-21T01:53:21;95846.53;;;12.93;79.48
83095;BME280;72967;43.674;6.976;2023-11-21T01:55:46;95852.84;;;12.93;79.69
83095;BME280;72967;43.674;6.976;2023-11-21T01:58:12;95844.63;;;13.04;79.06
83095;BME280;72967;43.674;6.976;2023-11-21T02:00:37;95816.47;;;12.81;79.11
83095;BME280;72967;43.674;6.976;2023-11-21T02:03:03;95832.59;;;12.75;79.91
83095;BME280;72967;43.674;6.976;2023-11-21T02:05:29;95843.16;;;12.62;80.32
83095;BME280;72967;43.674;6.976;2023-11-21T02:07:54;95837.91;;;12.47;81.28
83095;BME280;72967;43.674;6.976;2023-11-21T02:10:22;95842.69;;;12.53;80.78
83095;BME280;72967;43.674;6.976;2023-11-21T02:12:50;95845.66;;;12.34;81.60
83095;BME280;72967;43.674;6.976;2023-11-21T02:15:17;95848.84;;;12.36;81.70
83095;BME280;72967;43.674;6.976;2023-11-21T02:17:46;95843.22;;;12.25;81.45
83095;BME280;72967;43.674;6.976;2023-11-21T02:20:19;95825.44;;;12.19;81.51
83095;BME280;72967;43.674;6.976;2023-11-21T02:22:55;95853.38;;;12.18;82.07
83095;BME280;72967;43.674;6.976;2023-11-21T02:25:29;95843.56;;;12.17;81.90
83095;BME280;72967;43.674;6.976;2023-11-21T02:27:55;95835.13;;;12.03;81.25
83095;BME280;72967;43.674;6.976;2023-11-21T02:30:22;95775.63;;;11.58;81.54
83095;BME280;72967;43.674;6.976;2023-11-21T02:32:51;95793.19;;;11.79;82.37
83095;BME280;72967;43.674;6.976;2023-11-21T02:35:19;95797.91;;;11.79;82.56
83095;BME280;72967;43.674;6.976;2023-11-21T02:37:49;95809.84;;;11.93;80.68
83095;BME280;72967;43.674;6.976;2023-11-21T02:40:15;95810.13;;;11.81;80.84
83095;BME280;72967;43.674;6.976;2023-11-21T02:42:49;95811.75;;;11.86;79.91
83095;BME280;72967;43.674;6.976;2023-11-21T02:45:19;95808.00;;;11.71;79.50
83095;BME280;72967;43.674;6.976;2023-11-21T02:47:46;95813.22;;;11.76;79.33
83095;BME280;72967;43.674;6.976;2023-11-21T02:50:12;95806.53;;;11.77;79.18
83095;BME280;72967;43.674;6.976;2023-11-21T02:52:38;95798.28;;;11.77;79.18
83095;BME280;72967;43.674;6.976;2023-11-21T02:55:05;95793.59;;;11.81;79.42
83095;BME280;72967;43.674;6.976;2023-11-21T02:57:32;95777.41;;;11.76;79.32
83095;BME280;72967;43.674;6.976;2023-11-21T02:59:58;95787.66;;;11.76;78.43
83095;BME280;72967;43.674;6.976;2023-11-21T03:02:25;95780.97;;;11.77;78.39
83095;BME280;72967;43.674;6.976;2023-11-21T03:04:50;95785.66;;;11.73;77.89
83095;BME280;72967;43.674;6.976;2023-11-21T03:07:16;95783.22;;;11.71;77.34
83095;BME280;72967;43.674;6.976;2023-11-21T03:09:47;95776.50;;;11.65;77.31
83095;BME280;72967;43.674;6.976;2023-11-21T03:12:12;95796.59;;;11.69;77.09
83095;BME280;72967;43.674;6.976;2023-11-21T03:14:39;95791.06;;;11.66;77.80
83095;BME280;72967;43.674;6.976;2023-11-21T03:17:04;95793.41;;;11.64;77.13
83095;BME280;72967;43.674;6.976;2023-11-21T03:19:30;95792.84;;;11.81;76.18
83095;BME280;72967;43.674;6.976;2023-11-21T03:21:56;95773.66;;;11.58;76.70
83095;BME280;72967;43.674;6.976;2023-11-21T03:24:21;95788.41;;;11.73;76.30
83095;BME280;72967;43.674;6.976;2023-11-21T03:26:48;95781.41;;;11.82;75.61
83095;BME280;72967;43.674;6.976;2023-11-21T03:29:13;95776.25;;;11.77;75.26
83095;BME280;72967;43.674;6.976;2023-11-21T03:31:40;95782.59;;;11.81;75.48
83095;BME280;72967;43.674;6.976;2023-11-21T03:34:06;95775.13;;;11.82;74.59
83095;BME280;72967;43.674;6.976;2023-11-21T03:36:31;95767.47;;;11.65;73.61
83095;BME280;72967;43.674;6.976;2023-11-21T03:38:57;95786.09;;;11.78;73.25
83095;BME280;72967;43.674;6.976;2023-11-21T03:41:22;95757.28;;;11.72;72.97
83095;BME280;72967;43.674;6.976;2023-11-21T03:43:48;95777.94;;;11.85;72.03
83095;BME280;72967;43.674;6.976;2023-11-21T03:46:13;95772.00;;;11.87;71.88
83095;BME280;72967;43.674;6.976;2023-11-21T03:48:39;95756.28;;;11.87;71.19
83095;BME280;72967;43.674;6.976;2023-11-21T03:51:04;95767.81;;;11.97;70.09
83095;BME280;72967;43.674;6.976;2023-11-21T03:53:30;95772.09;;;11.94;70.67
83095;BME280;72967;43.674;6.976;2023-11-21T03:55:55;95751.00;;;11.72;72.05
83095;BME280;72967;43.674;6.976;2023-11-21T03:58:21;95776.81;;;11.93;71.39
83095;BME280;72967;43.674;6.976;2023-11-21T04:00:47;95775.28;;;12.00;71.03
83095;BME280;72967;43.674;6.976;2023-11-21T04:03:14;95774.03;;;11.90;72.03
83095;BME280;72967;43.674;6.976;2023-11-21T04:05:40;95771.63;;;11.85;71.24
83095;BME280;72967;43.674;6.976;2023-11-21T04:08:06;95773.66;;;11.91;73.32
83095;BME280;72967;43.674;6.976;2023-11-21T04:10:32;95769.34;;;11.94;73.92
83095;BME280;72967;43.674;6.976;2023-11-21T04:12:57;95757.94;;;11.96;73.14
83095;BME280;72967;43.674;6.976;2023-11-21T04:15:23;95769.00;;;12.03;73.40
83095;BME280;72967;43.674;6.976;2023-11-21T04:17:48;95766.72;;;12.08;73.98
83095;BME280;72967;43.674;6.976;2023-11-21T04:20:14;95762.41;;;12.11;73.40
83095;BME280;72967;43.674;6.976;2023-11-21T04:22:39;95752.53;;;12.06;74.33
83095;BME280;72967;43.674;6.976;2023-11-21T04:25:08;95752.22;;;12.15;73.83
83095;BME280;72967;43.674;6.976;2023-11-21T04:27:34;95768.81;;;12.25;73.54
83095;BME280;72967;43.674;6.976;2023-11-21T04:29:59;95766.34;;;12.10;71.86
83095;BME280;72967;43.674;6.976;2023-11-21T04:32:25;95766.72;;;12.08;71.29
83095;BME280;72967;43.674;6.976;2023-11-21T04:34:50;95759.53;;;11.97;71.50
83095;BME280;72967;43.674;6.976;2023-11-21T04:37:16;95760.19;;;11.83;71.79
83095;BME280;72967;43.674;6.976;2023-11-21T04:39:41;95773.38;;;11.67;71.86
83095;BME280;72967;43.674;6.976;2023-11-21T04:42:06;95780.16;;;11.73;72.35
83095;BME280;72967;43.674;6.976;2023-11-21T04:44:32;95773.66;;;11.58;72.65
83095;BME280;72967;43.674;6.976;2023-11-21T04:46:57;95767.03;;;11.63;72.70
83095;BME280;72967;43.674;6.976;2023-11-21T04:49:23;95770.66;;;11.70;73.53
83095;BME280;72967;43.674;6.976;2023-11-21T04:51:48;95770.81;;;11.81;72.29
83095;BME280;72967;43.674;6.976;2023-11-21T04:54:13;95762.56;;;11.84;73.25
83095;BME280;72967;43.674;6.976;2023-11-21T04:56:39;95770.16;;;11.98;72.78
83095;BME280;72967;43.674;6.976;2023-11-21T04:59:04;95767.56;;;12.12;71.74
83095;BME280;72967;43.674;6.976;2023-11-21T05:01:29;95756.19;;;12.21;71.54
83095;BME280;72967;43.674;6.976;2023-11-21T05:03:55;95751.78;;;12.13;71.09
83095;BME280;72967;43.674;6.976;2023-11-21T05:06:22;95736.72;;;11.96;71.22
83095;BME280;72967;43.674;6.976;2023-11-21T05:08:49;95749.97;;;11.87;70.80
83095;BME280;72967;43.674;6.976;2023-11-21T05:11:27;95749.19;;;11.86;70.34
83095;BME280;72967;43.674;6.976;2023-11-21T05:13:54;95743.31;;;11.88;69.47
83095;BME280;72967;43.674;6.976;2023-11-21T05:16:21;95755.00;;;11.74;69.56
83095;BME280;72967;43.674;6.976;2023-11-21T05:18:47;95768.97;;;11.59;68.95
83095;BME280;72967;43.674;6.976;2023-11-21T05:21:13;95764.25;;;11.59;68.65
83095;BME280;72967;43.674;6.976;2023-11-21T05:23:38;95768.63;;;11.64;67.90
83095;BME280;72967;43.674;6.976;2023-11-21T05:26:05;95781.22;;;11.65;67.09
83095;BME280;72967;43.674;6.976;2023-11-21T05:28:30;95784.38;;;11.67;66.73
83095;BME280;72967;43.674;6.976;2023-11-21T05:30:55;95779.81;;;11.81;66.59
83095;BME280;72967;43.674;6.976;2023-11-21T05:33:21;95781.28;;;11.72;66.72
83095;BME280;72967;43.674;6.976;2023-11-21T05:35:46;95760.44;;;11.71;66.16
83095;BME280;72967;43.674;6.976;2023-11-21T05:38:14;95774.31;;;11.81;66.43
83095;BME280;72967;43.674;6.976;2023-11-21T05:40:39;95766.22;;;11.96;65.56
83095;BME280;72967;43.674;6.976;2023-11-21T05:43:04;95738.03;;;11.72;64.73
83095;BME280;72967;43.674;6.976;2023-11-21T05:45:30;95761.41;;;11.89;64.25
83095;BME280;72967;43.674;6.976;2023-11-21T05:47:57;95753.41;;;11.73;63.74
83095;BME280;72967;43.674;6.976;2023-11-21T05:50:23;95762.41;;;11.70;62.76
83095;BME280;72967;43.674;6.976;2023-11-21T05:52:48;95757.59;;;11.64;62.25
83095;BME280;72967;43.674;6.976;2023-11-21T05:55:14;95747.69;;;11.56;62.47
83095;BME280;72967;43.674;6.976;2023-11-21T05:57:42;95764.28;;;11.63;63.41
83095;BME280;72967;43.674;6.976;2023-11-21T06:00:14;95759.38;;;11.79;62.83
83095;BME280;72967;43.674;6.976;2023-11-21T06:02:51;95764.19;;;11.92;62.72
83095;BME280;72967;43.674;6.976;2023-11-21T06:05:19;95771.38;;;12.01;63.21
83095;BME280;72967;43.674;6.976;2023-11-21T06:07:45;95738.25;;;11.93;62.91
83095;BME280;72967;43.674;6.976;2023-11-21T06:10:11;95766.78;;;12.19;63.63
83095;BME280;72967;43.674;6.976;2023-11-21T06:12:40;95766.88;;;12.26;62.54
83095;BME280;72967;43.674;6.976;2023-11-21T06:15:09;95764.94;;;12.33;62.81
83095;BME280;72967;43.674;6.976;2023-11-21T06:17:35;95777.97;;;12.33;62.25
83095;BME280;72967;43.674;6.976;2023-11-21T06:20:05;95764.84;;;12.19;61.57
83095;BME280;72967;43.674;6.976;2023-11-21T06:22:45;95758.09;;;12.13;61.15
83095;BME280;72967;43.674;6.976;2023-11-21T06:25:12;95771.41;;;12.08;60.84
83095;BME280;72967;43.674;6.976;2023-11-21T06:27:46;95775.06;;;12.19;60.65
83095;BME280;72967;43.674;6.976;2023-11-21T06:30:13;95751.69;;;12.02;59.92
83095;BME280;72967;43.674;6.976;2023-11-21T06:32:40;95766.72;;;12.08;60.93
83095;BME280;72967;43.674;6.976;2023-11-21T06:35:07;95777.34;;;12.10;59.34
83095;BME280;72967;43.674;6.976;2023-11-21T06:37:33;95783.47;;;11.89;57.41
83095;BME280;72967;43.674;6.976;2023-11-21T06:40:00;95773.16;;;11.82;56.22
83095;BME280;72967;43.674;6.976;2023-11-21T06:42:26;95758.13;;;11.73;56.05
83095;BME280;72967;43.674;6.976;2023-11-21T06:44:52;95775.28;;;12.00;57.62
83095;BME280;72967;43.674;6.976;2023-11-21T06:47:19;95775.66;;;11.98;57.60
83095;BME280;72967;43.674;6.976;2023-11-21T06:49:50;95782.03;;;12.06;57.71
83095;BME280;72967;43.674;6.976;2023-11-21T06:52:15;95761.16;;;12.01;57.59
83095;BME280;72967;43.674;6.976;2023-11-21T06:54:41;95783.06;;;12.34;60.35
83095;BME280;72967;43.674;6.976;2023-11-21T06:57:06;95787.16;;;12.55;60.79
83095;BME280;72967;43.674;6.976;2023-11-21T06:59:32;95790.31;;;12.53;61.27
83095;BME280;72967;43.674;6.976;2023-11-21T07:01:58;95792.38;;;12.70;60.95
83095;BME280;72967;43.674;6.976;2023-11-21T07:04:24;95791.13;;;12.57;58.56
83095;BME280;72967;43.674;6.976;2023-11-21T07:06:51;95792.91;;;12.35;57.51
83095;BME280;72967;43.674;6.976;2023-11-21T07:09:16;95789.84;;;12.44;57.67
83095;BME280;72967;43.674;6.976;2023-11-21T07:11:42;95785.63;;;12.57;60.02
83095;BME280;72967;43.674;6.976;2023-11-21T07:14:07;95789.97;;;12.58;61.28
83095;BME280;72967;43.674;6.976;2023-11-21T07:16:37;95786.00;;;12.59;59.11
83095;BME280;72967;43.674;6.976;2023-11-21T07:19:06;95776.97;;;12.62;58.53
83095;BME280;72967;43.674;6.976;2023-11-21T07:21:32;95789.97;;;12.62;59.18
83095;BME280;72967;43.674;6.976;2023-11-21T07:24:02;95784.16;;;12.74;61.10
83095;BME280;72967;43.674;6.976;2023-11-21T07:26:28;95787.31;;;12.76;61.28
83095;BME280;72967;43.674;6.976;2023-11-21T07:28:54;95766.41;;;12.75;60.05
83095;BME280;72967;43.674;6.976;2023-11-21T07:31:19;95761.25;;;12.66;60.99
83095;BME280;72967;43.674;6.976;2023-11-21T07:33:46;95765.66;;;12.74;63.27
83095;BME280;72967;43.674;6.976;2023-11-21T07:36:15;95765.34;;;12.94;62.30
83095;BME280;72967;43.674;6.976;2023-11-21T07:38:42;95764.56;;;12.90;60.63
83095;BME280;72967;43.674;6.976;2023-11-21T07:41:08;95759.00;;;12.86;59.89
83095;BME280;72967;43.674;6.976;2023-11-21T07:43:35;95752.53;;;12.57;58.42
83095;BME280;72967;43.674;6.976;2023-11-21T07:46:04;95741.78;;;12.38;59.32
83095;BME280;72967;43.674;6.976;2023-11-21T07:48:30;95757.22;;;12.53;58.79
83095;BME280;72967;43.674;6.976;2023-11-21T07:50:57;95752.16;;;12.62;58.34
83095;BME280;72967;43.674;6.976;2023-11-21T07:53:26;95735.19;;;12.57;58.19
83095;BME280;72967;43.674;6.976;2023-11-21T07:55:54;95726.63;;;12.72;62.96
83095;BME280;72967;43.674;6.976;2023-11-21T07:58:19;95744.41;;;12.86;62.24
83095;BME280;72967;43.674;6.976;2023-11-21T08:00:45;95756.34;;;13.07;61.00
83095;BME280;72967;43.674;6.976;2023-11-21T08:03:10;95765.38;;;12.97;62.87
83095;BME280;72967;43.674;6.976;2023-11-21T08:05:36;95756.28;;;12.97;63.69
83095;BME280;72967;43.674;6.976;2023-11-21T08:08:02;95746.47;;;13.03;62.88
83095;BME280;72967;43.674;6.976;2023-11-21T08:10:27;95756.44;;;13.18;63.78
83095;BME280;72967;43.674;6.976;2023-11-21T08:12:53;95781.38;;;13.43;63.41
83095;BME280;72967;43.674;6.976;2023-11-21T08:15:19;95799.19;;;13.56;64.03
83095;BME280;72967;43.674;6.976;2023-11-21T08:17:46;95805.88;;;13.58;63.49
83095;BME280;72967;43.674;6.976;2023-11-21T08:20:11;95811.44;;;13.62;64.91
83095;BME280;72967;43.674;6.976;2023-11-21T08:22:37;95805.13;;;13.65;65.35
83095;BME280;72967;43.674;6.976;2023-11-21T08:25:03;95796.41;;;13.63;65.37
83095;BME280;72967;43.674;6.976;2023-11-21T08:27:31;95794.91;;;13.80;65.12
83095;BME280;72967;43.674;6.976;2023-11-21T08:29:56;95792.50;;;13.75;65.07
83095;BME280;72967;43.674;6.976;2023-11-21T08:32:22;95779.84;;;13.59;65.73
83095;BME280;72967;43.674;6.976;2023-11-21T08:34:47;95800.44;;;13.83;65.07
83095;BME280;72967;43.674;6.976;2023-11-21T08:37:16;95809.91;;;13.89;64.86
83095;BME280;72967;43.674;6.976;2023-11-21T08:39:43;95808.00;;;14.08;64.81
83095;BME280;72967;43.674;6.976;2023-11-21T08:42:08;95800.09;;;14.17;64.25
83095;BME280;72967;43.674;6.976;2023-11-21T08:44:34;95770.47;;;13.96;64.59
83095;BME280;72967;43.674;6.976;2023-11-21T08:46:59;95791.41;;;14.22;64.44
83095;BME280;72967;43.674;6.976;2023-11-21T08:49:24;95794.97;;;14.33;64.04
83095;BME280;72967;43.674;6.976;2023-11-21T08:51:53;95783.94;;;14.33;64.14
83095;BME280;72967;43.674;6.976;2023-11-21T08:54:20;95797.41;;;14.45;64.36
83095;BME280;72967;43.674;6.976;2023-11-21T08:56:46;95796.59;;;14.44;63.58
83095;BME280;72967;43.674;6.976;2023-11-21T08:59:12;95809.22;;;14.53;63.40
83095;BME280;72967;43.674;6.976;2023-11-21T09:01:40;95795.03;;;14.51;63.37
83095;BME280;72967;43.674;6.976;2023-11-21T09:04:06;95799.38;;;14.59;63.75
83095;BME280;72967;43.674;6.976;2023-11-21T09:06:31;95803.69;;;14.67;63.92
83095;BME280;72967;43.674;6.976;2023-11-21T09:08:57;95798.56;;;14.69;64.21
83095;BME280;72967;43.674;6.976;2023-11-21T09:11:23;95798.97;;;14.60;64.57
83095;BME280;72967;43.674;6.976;2023-11-21T09:13:50;95810.00;;;14.67;65.03
83095;BME280;72967;43.674;6.976;2023-11-21T09:16:16;95796.59;;;14.62;64.93
83095;BME280;72967;43.674;6.976;2023-11-21T09:18:42;95793.03;;;14.62;64.96
83095;BME280;72967;43.674;6.976;2023-11-21T09:21:07;95801.72;;;14.64;64.53
83095;BME280;72967;43.674;6.976;2023-11-21T09:23:34;95793.41;;;14.67;64.60
83095;BME280;72967;43.674;6.976;2023-11-21T09:25:59;95785.13;;;14.57;64.47
83095;BME280;72967;43.674;6.976;2023-11-21T09:28:26;95788.31;;;14.66;64.07
83095;BME280;72967;43.674;6.976;2023-11-21T09:30:53;95787.47;;;14.72;63.78
83095;BME280;72967;43.674;6.976;2023-11-21T09:33:18;95779.59;;;14.74;63.74
83095;BME280;72967;43.674;6.976;2023-11-21T09:35:44;95772.44;;;14.77;63.33
83095;BME280;72967;43.674;6.976;2023-11-21T09:38:09;95776.41;;;14.86;62.60
83095;BME280;72967;43.674;6.976;2023-11-21T09:40:36;95775.22;;;14.77;62.92
83095;BME280;72967;43.674;6.976;2023-11-21T09:43:08;95774.03;;;14.78;62.54
83095;BME280;72967;43.674;6.976;2023-11-21T09:45:46;95761.41;;;14.70;62.57
83095;BME280;72967;43.674;6.976;2023-11-21T09:48:16;95769.28;;;14.78;62.50
83095;BME280;72967;43.674;6.976;2023-11-21T09:50:42;95769.66;;;14.87;62.26
83095;BME280;72967;43.674;6.976;2023-11-21T09:53:17;95766.09;;;14.87;62.17
83095;BME280;72967;43.674;6.976;2023-11-21T09:55:45;95766.09;;;14.87;62.63
83095;BME280;72967;43.674;6.976;2023-11-21T09:58:12;95764.97;;;14.81;62.87
83095;BME280;72967;43.674;6.976;2023-11-21T10:00:42;95754.69;;;14.74;63.18
83095;BME280;72967;43.674;6.976;2023-11-21T10:03:09;95755.44;;;14.82;63.41
83095;BME280;72967;43.674;6.976;2023-11-21T10:05:35;95756.63;;;14.84;63.37
83095;BME280;72967;43.674;6.976;2023-11-21T10:08:02;95765.34;;;14.83;63.23
83095;BME280;72967;43.674;6.976;2023-11-21T10:10:31;95758.97;;;14.93;62.64
83095;BME280;72967;43.674;6.976;2023-11-21T10:13:01;95759.78;;;14.94;62.48
83095;BME280;72967;43.674;6.976;2023-11-21T10:15:29;95756.22;;;14.93;62.41
83095;BME280;72967;43.674;6.976;2023-11-21T10:17:55;95756.22;;;14.89;62.81
83095;BME280;72967;43.674;6.976;2023-11-21T10:20:20;95730.56;;;14.78;62.77
83095;BME280;72967;43.674;6.976;2023-11-21T10:22:47;95759.78;;;14.97;62.67
83095;BME280;72967;43.674;6.976;2023-11-21T10:25:13;95760.97;;;14.93;63.52
83095;BME280;72967;43.674;6.976;2023-11-21T10:27:46;95755.41;;;15.00;62.95
83095;BME280;72967;43.674;6.976;2023-11-21T10:30:11;95760.16;;;15.06;62.70
83095;BME280;72967;43.674;6.976;2023-11-21T10:32:41;95753.44;;;15.00;63.43
83095;BME280;72967;43.674;6.976;2023-11-21T10:35:10;95754.25;;;14.90;63.35
83095;BME280;72967;43.674;6.976;2023-11-21T10:37:39;95737.66;;;14.86;63.39
83095;BME280;72967;43.674;6.976;2023-11-21T10:40:09;95736.47;;;14.84;63.59
83095;BME280;72967;43.674;6.976;2023-11-21T10:42:40;95745.19;;;14.79;64.22
83095;BME280;72967;43.674;6.976;2023-11-21T10:45:08;95741.25;;;14.73;64.20
83095;BME280;72967;43.674;6.976;2023-11-21T10:47:40;95744.03;;;14.76;64.39
83095;BME280;72967;43.674;6.976;2023-11-21T10:50:07;95731.00;;;14.63;64.37
83095;BME280;72967;43.674;6.976;2023-11-21T10:52:42;95735.34;;;14.60;64.68
83095;BME280;72967;43.674;6.976;2023-11-21T10:55:19;95734.56;;;14.45;65.12
83095;BME280;72967;43.674;6.976;2023-11-21T10:57:52;95731.41;;;14.54;65.32
83095;BME280;72967;43.674;6.976;2023-11-21T11:00:18;95731.78;;;14.56;65.67
83095;BME280;72967;43.674;6.976;2023-11-21T11:02:51;95714.78;;;14.58;65.53
83095;BME280;72967;43.674;6.976;2023-11-21T11:05:19;95714.03;;;14.54;65.40
83095;BME280;72967;43.674;6.976;2023-11-21T11:07:48;95714.38;;;14.63;65.42
83095;BME280;72967;43.674;6.976;2023-11-21T11:10:13;95675.31;;;14.46;65.20
83095;BME280;72967;43.674;6.976;2023-11-21T11:12:41;95695.84;;;14.60;64.98
83095;BME280;72967;43.674;6.976;2023-11-21T11:15:08;95700.97;;;14.54;64.65
83095;BME280;72967;43.674;6.976;2023-11-21T11:17:37;95709.25;;;14.61;64.23
83095;BME280;72967;43.674;6.976;2023-11-21T11:20:04;95706.91;;;14.53;65.19
83095;BME280;72967;43.674;6.976;2023-11-21T11:22:40;95708.88;;;14.49;65.42
83095;BME280;72967;43.674;6.976;2023-11-21T11:30:39;95700.97;;;14.47;64.44
83095;BME280;72967;43.674;6.976;2023-11-21T11:38:16;95694.19;;;14.80;63.21
83095;BME280;72967;43.674;6.976;2023-11-21T11:40:45;95692.63;;;14.79;63.37
83095;BME280;72967;43.674;6.976;2023-11-21T11:43:11;95687.09;;;14.79;63.37
83095;BME280;72967;43.674;6.976;2023-11-21T11:45:37;95595.97;;;14.19;63.58
83095;BME280;72967;43.674;6.976;2023-11-21T11:48:07;95685.50;;;14.85;64.04
83095;BME280;72967;43.674;6.976;2023-11-21T11:50:32;95687.03;;;14.93;64.67
83095;BME280;72967;43.674;6.976;2023-11-21T11:53:18;95680.78;;;14.75;64.16
83095;BME280;72967;43.674;6.976;2023-11-21T11:55:45;95676.00;;;14.82;64.35
83095;BME280;72967;43.674;6.976;2023-11-21T11:58:10;95662.53;;;14.92;63.99
83095;BME280;72967;43.674;6.976;2023-11-21T12:00:36;95663.28;;;14.99;63.52
83095;BME280;72967;43.674;6.976;2023-11-21T12:03:08;95658.19;;;14.91;64.06
83095;BME280;72967;43.674;6.976;2023-11-21T12:05:35;95657.38;;;14.97;64.19
83095;BME280;72967;43.674;6.976;2023-11-21T12:08:04;95659.75;;;14.95;64.13
83095;BME280;72967;43.674;6.976;2023-11-21T12:10:32;95660.53;;;14.99;65.09
83095;BME280;72967;43.674;6.976;2023-11-21T12:13:02;95655.81;;;14.89;64.28
83095;BME280;72967;43.674;6.976;2023-11-21T12:15:28;95668.81;;;14.99;64.59
83095;BME280;72967;43.674;6.976;2023-11-21T12:17:55;95677.13;;;14.99;65.13
83095;BME280;72967;43.674;6.976;2023-11-21T12:20:23;95654.22;;;14.95;65.32
83095;BME280;72967;43.674;6.976;2023-11-21T12:22:53;95648.28;;;14.97;64.76
83095;BME280;72967;43.674;6.976;2023-11-21T12:25:24;95636.34;;;15.10;64.03
83095;BME280;72967;43.674;6.976;2023-11-21T12:27:52;95665.53;;;15.25;64.06
83095;BME280;72967;43.674;6.976;2023-11-21T12:30:20;95658.38;;;15.31;63.73
83095;BME280;72967;43.674;6.976;2023-11-21T12:32:52;95660.28;;;15.49;63.36
83095;BME280;72967;43.674;6.976;2023-11-21T12:35:24;95651.97;;;15.45;61.97
83095;BME280;72967;43.674;6.976;2023-11-21T12:37:51;95645.97;;;15.64;61.54
83095;BME280;72967;43.674;6.976;2023-11-21T12:40:18;95643.94;;;15.68;61.94
83095;BME280;72967;43.674;6.976;2023-11-21T12:42:48;95641.59;;;15.60;61.23
83095;BME280;72967;43.674;6.976;2023-11-21T12:47:55;95638.47;;;15.58;59.15
83095;BME280;72967;43.674;6.976;2023-11-21T12:50:26;95634.91;;;15.57;59.59
83095;BME280;72967;43.674;6.976;2023-11-21T12:53:00;95627.00;;;15.56;60.35
83095;BME280;72967;43.674;6.976;2023-11-21T12:55:26;95632.44;;;15.73;60.28
83095;BME280;72967;43.674;6.976;2023-11-21T12:57:55;95622.06;;;15.81;59.94
83095;BME280;72967;43.674;6.976;2023-11-21T13:00:28;95618.09;;;15.82;57.49
83095;BME280;72967;43.674;6.976;2023-11-21T13:02:56;95624.19;;;15.63;56.28
83095;BME280;72967;43.674;6.976;2023-11-21T13:05:29;95613.91;;;15.60;55.84
83095;BME280;72967;43.674;6.976;2023-11-21T13:07:59;95620.06;;;15.85;55.65
83095;BME280;72967;43.674;6.976;2023-11-21T13:10:30;95629.50;;;15.95;55.92
83095;BME280;72967;43.674;6.976;2023-11-21T13:13:05;95631.78;;;16.03;55.56